SYNOP

Station Code SYNOP
43555
AAXX 04034 43555 42470 72006 10296 20256 30143 40145 82202 333 20275 58013 82818 87077 555 10750=
43533
AAXX 04034 43533 42465 72704 10294 20262 30139 40141 82242 333 20276 58011 82818 87076 555 10965=
43577
AAXX 04064 43577 12463 71105 10300 20257 30147 40149 60001 82238 333 58008 82818 87276=
43588
AAXX 04064 43588 12462 71405 10304 20256 30147 40148 60001 82238 333 58006 82818 87276=
43599
AAXX 04064 43599 12460 71107 10282 20255 30148 40150 60001 83936 333 58009 82817 81918 84362 87276=
Last Updated : 2021-08-04 10:59:45